sensor_id;sensor_type;location;lat;lon;timestamp;P1;durP1;ratioP1;P2;durP2;ratioP2
65597;SDS011;52267;51.984;20.956;2023-08-20T00:02:08;19.20;;;17.20;;
65597;SDS011;52267;51.984;20.956;2023-08-20T00:04:36;21.60;;;17.80;;
65597;SDS011;52267;51.984;20.956;2023-08-20T00:07:03;19.90;;;17.20;;
65597;SDS011;52267;51.984;20.956;2023-08-20T00:09:31;19.90;;;17.80;;
65597;SDS011;52267;51.984;20.956;2023-08-20T00:11:59;19.30;;;16.90;;
65597;SDS011;52267;51.984;20.956;2023-08-20T00:14:55;19.50;;;17.40;;
65597;SDS011;52267;51.984;20.956;2023-08-20T00:17:35;19.80;;;17.70;;
65597;SDS011;52267;51.984;20.956;2023-08-20T00:20:05;19.50;;;17.10;;
65597;SDS011;52267;51.984;20.956;2023-08-20T00:22:36;19.10;;;16.80;;
65597;SDS011;52267;51.984;20.956;2023-08-20T00:25:04;19.00;;;17.00;;
65597;SDS011;52267;51.984;20.956;2023-08-20T00:27:32;19.70;;;17.60;;
65597;SDS011;52267;51.984;20.956;2023-08-20T00:29:59;18.60;;;16.70;;
65597;SDS011;52267;51.984;20.956;2023-08-20T00:32:26;20.20;;;17.50;;
65597;SDS011;52267;51.984;20.956;2023-08-20T00:34:53;18.30;;;16.40;;
65597;SDS011;52267;51.984;20.956;2023-08-20T00:37:20;21.20;;;18.30;;
65597;SDS011;52267;51.984;20.956;2023-08-20T00:39:48;20.20;;;16.70;;
65597;SDS011;52267;51.984;20.956;2023-08-20T00:42:15;18.70;;;16.60;;
65597;SDS011;52267;51.984;20.956;2023-08-20T00:44:42;19.10;;;17.10;;
65597;SDS011;52267;51.984;20.956;2023-08-20T00:47:13;19.30;;;17.10;;
65597;SDS011;52267;51.984;20.956;2023-08-20T00:49:41;19.50;;;15.90;;
65597;SDS011;52267;51.984;20.956;2023-08-20T00:52:08;18.40;;;16.50;;
65597;SDS011;52267;51.984;20.956;2023-08-20T00:54:39;18.70;;;16.70;;
65597;SDS011;52267;51.984;20.956;2023-08-20T00:57:08;19.80;;;17.20;;
65597;SDS011;52267;51.984;20.956;2023-08-20T00:59:35;18.50;;;15.80;;
65597;SDS011;52267;51.984;20.956;2023-08-20T01:02:03;18.20;;;16.00;;
65597;SDS011;52267;51.984;20.956;2023-08-20T01:04:30;18.40;;;16.40;;
65597;SDS011;52267;51.984;20.956;2023-08-20T01:10:06;19.60;;;17.40;;
65597;SDS011;52267;51.984;20.956;2023-08-20T01:12:38;20.40;;;17.40;;
65597;SDS011;52267;51.984;20.956;2023-08-20T01:15:06;18.80;;;16.90;;
65597;SDS011;52267;51.984;20.956;2023-08-20T01:17:35;20.40;;;17.30;;
65597;SDS011;52267;51.984;20.956;2023-08-20T01:20:02;19.70;;;17.00;;
65597;SDS011;52267;51.984;20.956;2023-08-20T01:22:52;19.10;;;16.90;;
65597;SDS011;52267;51.984;20.956;2023-08-20T01:25:50;19.30;;;16.80;;
65597;SDS011;52267;51.984;20.956;2023-08-20T01:28:35;18.30;;;16.40;;
65597;SDS011;52267;51.984;20.956;2023-08-20T01:31:03;19.70;;;16.60;;
65597;SDS011;52267;51.984;20.956;2023-08-20T01:33:30;19.40;;;16.30;;
65597;SDS011;52267;51.984;20.956;2023-08-20T01:35:58;19.10;;;16.80;;
65597;SDS011;52267;51.984;20.956;2023-08-20T01:38:25;18.50;;;16.40;;
65597;SDS011;52267;51.984;20.956;2023-08-20T01:40:52;19.10;;;16.40;;
65597;SDS011;52267;51.984;20.956;2023-08-20T01:43:19;17.70;;;15.80;;
65597;SDS011;52267;51.984;20.956;2023-08-20T01:45:46;19.60;;;17.00;;
65597;SDS011;52267;51.984;20.956;2023-08-20T01:48:13;20.10;;;17.20;;
65597;SDS011;52267;51.984;20.956;2023-08-20T01:50:40;21.80;;;18.90;;
65597;SDS011;52267;51.984;20.956;2023-08-20T01:53:07;21.90;;;18.30;;
65597;SDS011;52267;51.984;20.956;2023-08-20T01:55:34;21.80;;;18.20;;
65597;SDS011;52267;51.984;20.956;2023-08-20T01:58:01;19.50;;;16.70;;
65597;SDS011;52267;51.984;20.956;2023-08-20T02:00:28;20.00;;;17.80;;
65597;SDS011;52267;51.984;20.956;2023-08-20T02:02:57;21.70;;;18.70;;
65597;SDS011;52267;51.984;20.956;2023-08-20T02:05:24;22.00;;;18.20;;
65597;SDS011;52267;51.984;20.956;2023-08-20T02:07:53;21.80;;;19.50;;
65597;SDS011;52267;51.984;20.956;2023-08-20T02:10:20;23.70;;;19.90;;
65597;SDS011;52267;51.984;20.956;2023-08-20T02:12:47;21.00;;;18.10;;
65597;SDS011;52267;51.984;20.956;2023-08-20T02:15:17;19.60;;;17.20;;
65597;SDS011;52267;51.984;20.956;2023-08-20T02:17:44;20.00;;;17.40;;
65597;SDS011;52267;51.984;20.956;2023-08-20T02:20:12;40.20;;;18.30;;
65597;SDS011;52267;51.984;20.956;2023-08-20T02:22:39;23.60;;;17.70;;
65597;SDS011;52267;51.984;20.956;2023-08-20T02:25:06;19.20;;;16.80;;
65597;SDS011;52267;51.984;20.956;2023-08-20T02:27:34;18.20;;;16.30;;
65597;SDS011;52267;51.984;20.956;2023-08-20T02:30:01;19.70;;;17.10;;
65597;SDS011;52267;51.984;20.956;2023-08-20T02:32:28;19.70;;;16.10;;
65597;SDS011;52267;51.984;20.956;2023-08-20T02:34:55;18.90;;;16.80;;
65597;SDS011;52267;51.984;20.956;2023-08-20T02:37:22;19.00;;;16.10;;
65597;SDS011;52267;51.984;20.956;2023-08-20T02:39:49;20.10;;;17.30;;
65597;SDS011;52267;51.984;20.956;2023-08-20T02:42:16;19.20;;;16.70;;
65597;SDS011;52267;51.984;20.956;2023-08-20T02:44:43;21.10;;;17.20;;
65597;SDS011;52267;51.984;20.956;2023-08-20T02:47:10;19.30;;;17.20;;
65597;SDS011;52267;51.984;20.956;2023-08-20T02:49:37;20.40;;;16.80;;
65597;SDS011;52267;51.984;20.956;2023-08-20T02:52:04;19.50;;;16.80;;
65597;SDS011;52267;51.984;20.956;2023-08-20T02:54:32;19.30;;;17.00;;
65597;SDS011;52267;51.984;20.956;2023-08-20T02:56:59;22.10;;;19.20;;
65597;SDS011;52267;51.984;20.956;2023-08-20T02:59:26;20.50;;;16.80;;
65597;SDS011;52267;51.984;20.956;2023-08-20T03:01:53;21.10;;;17.90;;
65597;SDS011;52267;51.984;20.956;2023-08-20T03:04:20;19.50;;;16.20;;
65597;SDS011;52267;51.984;20.956;2023-08-20T03:06:47;20.10;;;16.60;;
65597;SDS011;52267;51.984;20.956;2023-08-20T03:09:14;18.90;;;16.40;;
65597;SDS011;52267;51.984;20.956;2023-08-20T03:11:41;21.10;;;17.20;;
65597;SDS011;52267;51.984;20.956;2023-08-20T03:14:08;18.00;;;15.80;;
65597;SDS011;52267;51.984;20.956;2023-08-20T03:16:35;22.30;;;17.20;;
65597;SDS011;52267;51.984;20.956;2023-08-20T03:19:02;19.70;;;17.60;;
65597;SDS011;52267;51.984;20.956;2023-08-20T03:21:30;20.60;;;17.50;;
65597;SDS011;52267;51.984;20.956;2023-08-20T03:23:57;18.20;;;15.70;;
65597;SDS011;52267;51.984;20.956;2023-08-20T03:26:24;18.90;;;16.30;;
65597;SDS011;52267;51.984;20.956;2023-08-20T03:28:51;17.40;;;15.60;;
65597;SDS011;52267;51.984;20.956;2023-08-20T03:31:18;18.40;;;15.90;;
65597;SDS011;52267;51.984;20.956;2023-08-20T03:33:45;18.30;;;16.20;;
65597;SDS011;52267;51.984;20.956;2023-08-20T03:36:12;19.50;;;16.00;;
65597;SDS011;52267;51.984;20.956;2023-08-20T03:38:39;19.10;;;16.40;;
65597;SDS011;52267;51.984;20.956;2023-08-20T03:41:07;21.50;;;16.20;;
65597;SDS011;52267;51.984;20.956;2023-08-20T03:43:34;18.80;;;15.40;;
65597;SDS011;52267;51.984;20.956;2023-08-20T03:46:01;20.10;;;17.60;;
65597;SDS011;52267;51.984;20.956;2023-08-20T03:48:29;17.90;;;15.60;;
65597;SDS011;52267;51.984;20.956;2023-08-20T03:50:56;18.40;;;16.00;;
65597;SDS011;52267;51.984;20.956;2023-08-20T03:53:23;18.60;;;16.10;;
65597;SDS011;52267;51.984;20.956;2023-08-20T03:55:50;20.00;;;17.20;;
65597;SDS011;52267;51.984;20.956;2023-08-20T03:58:17;19.80;;;17.40;;
65597;SDS011;52267;51.984;20.956;2023-08-20T04:00:44;18.80;;;15.80;;
65597;SDS011;52267;51.984;20.956;2023-08-20T04:03:12;20.00;;;16.90;;
65597;SDS011;52267;51.984;20.956;2023-08-20T04:05:39;19.70;;;15.80;;
65597;SDS011;52267;51.984;20.956;2023-08-20T04:08:06;20.60;;;16.80;;
65597;SDS011;52267;51.984;20.956;2023-08-20T04:10:34;18.30;;;16.30;;
65597;SDS011;52267;51.984;20.956;2023-08-20T04:13:01;20.10;;;16.60;;
65597;SDS011;52267;51.984;20.956;2023-08-20T04:15:28;20.10;;;16.80;;
65597;SDS011;52267;51.984;20.956;2023-08-20T04:17:55;19.20;;;16.30;;
65597;SDS011;52267;51.984;20.956;2023-08-20T04:20:22;18.60;;;16.60;;
65597;SDS011;52267;51.984;20.956;2023-08-20T04:22:49;20.00;;;17.50;;
65597;SDS011;52267;51.984;20.956;2023-08-20T04:25:16;19.50;;;17.40;;
65597;SDS011;52267;51.984;20.956;2023-08-20T04:27:44;21.30;;;17.60;;
65597;SDS011;52267;51.984;20.956;2023-08-20T04:30:11;19.50;;;17.40;;
65597;SDS011;52267;51.984;20.956;2023-08-20T04:32:38;20.70;;;16.70;;
65597;SDS011;52267;51.984;20.956;2023-08-20T04:35:05;19.60;;;16.50;;
65597;SDS011;52267;51.984;20.956;2023-08-20T04:37:33;19.00;;;16.90;;
65597;SDS011;52267;51.984;20.956;2023-08-20T04:39:59;23.20;;;19.30;;
65597;SDS011;52267;51.984;20.956;2023-08-20T04:42:27;20.10;;;17.50;;
65597;SDS011;52267;51.984;20.956;2023-08-20T04:44:54;21.80;;;18.40;;
65597;SDS011;52267;51.984;20.956;2023-08-20T04:47:21;21.40;;;18.20;;
65597;SDS011;52267;51.984;20.956;2023-08-20T04:49:48;20.90;;;17.40;;
65597;SDS011;52267;51.984;20.956;2023-08-20T04:52:15;20.40;;;18.00;;
65597;SDS011;52267;51.984;20.956;2023-08-20T04:54:42;21.60;;;18.30;;
65597;SDS011;52267;51.984;20.956;2023-08-20T04:57:09;20.90;;;17.70;;
65597;SDS011;52267;51.984;20.956;2023-08-20T04:59:36;23.10;;;18.70;;
65597;SDS011;52267;51.984;20.956;2023-08-20T05:02:03;19.60;;;17.50;;
65597;SDS011;52267;51.984;20.956;2023-08-20T05:04:30;20.20;;;17.40;;
65597;SDS011;52267;51.984;20.956;2023-08-20T05:06:57;20.40;;;18.30;;
65597;SDS011;52267;51.984;20.956;2023-08-20T05:09:24;21.00;;;18.50;;
65597;SDS011;52267;51.984;20.956;2023-08-20T05:11:51;19.90;;;18.30;;
65597;SDS011;52267;51.984;20.956;2023-08-20T05:14:18;21.30;;;18.80;;
65597;SDS011;52267;51.984;20.956;2023-08-20T05:16:45;20.60;;;17.90;;
65597;SDS011;52267;51.984;20.956;2023-08-20T05:19:12;21.30;;;18.90;;
65597;SDS011;52267;51.984;20.956;2023-08-20T05:21:39;20.90;;;18.50;;
65597;SDS011;52267;51.984;20.956;2023-08-20T05:24:06;20.60;;;18.50;;
65597;SDS011;52267;51.984;20.956;2023-08-20T05:26:34;23.80;;;20.10;;
65597;SDS011;52267;51.984;20.956;2023-08-20T05:29:01;23.10;;;20.00;;
65597;SDS011;52267;51.984;20.956;2023-08-20T05:31:28;22.70;;;19.90;;
65597;SDS011;52267;51.984;20.956;2023-08-20T05:33:55;25.50;;;21.10;;
65597;SDS011;52267;51.984;20.956;2023-08-20T05:36:23;27.00;;;22.50;;
65597;SDS011;52267;51.984;20.956;2023-08-20T05:38:50;22.60;;;20.20;;
65597;SDS011;52267;51.984;20.956;2023-08-20T05:41:17;23.90;;;19.10;;
65597;SDS011;52267;51.984;20.956;2023-08-20T05:43:44;19.90;;;17.80;;
65597;SDS011;52267;51.984;20.956;2023-08-20T05:46:11;22.60;;;18.50;;
65597;SDS011;52267;51.984;20.956;2023-08-20T05:48:38;22.70;;;19.60;;
65597;SDS011;52267;51.984;20.956;2023-08-20T05:51:05;23.40;;;19.70;;
65597;SDS011;52267;51.984;20.956;2023-08-20T05:53:32;20.80;;;18.30;;
65597;SDS011;52267;51.984;20.956;2023-08-20T05:55:59;23.00;;;18.80;;
65597;SDS011;52267;51.984;20.956;2023-08-20T05:58:26;21.40;;;19.20;;
65597;SDS011;52267;51.984;20.956;2023-08-20T06:00:53;20.80;;;17.60;;
65597;SDS011;52267;51.984;20.956;2023-08-20T06:03:20;21.30;;;17.90;;
65597;SDS011;52267;51.984;20.956;2023-08-20T06:05:47;20.50;;;18.40;;
65597;SDS011;52267;51.984;20.956;2023-08-20T06:08:14;20.70;;;18.30;;
65597;SDS011;52267;51.984;20.956;2023-08-20T06:10:41;19.50;;;17.40;;
65597;SDS011;52267;51.984;20.956;2023-08-20T06:13:08;20.10;;;17.90;;
65597;SDS011;52267;51.984;20.956;2023-08-20T06:15:35;18.50;;;16.50;;
65597;SDS011;52267;51.984;20.956;2023-08-20T06:18:03;19.40;;;17.40;;
65597;SDS011;52267;51.984;20.956;2023-08-20T06:20:30;19.30;;;16.90;;
65597;SDS011;52267;51.984;20.956;2023-08-20T06:22:57;18.00;;;15.90;;
65597;SDS011;52267;51.984;20.956;2023-08-20T06:25:24;19.20;;;17.20;;
65597;SDS011;52267;51.984;20.956;2023-08-20T06:27:51;19.10;;;17.20;;
65597;SDS011;52267;51.984;20.956;2023-08-20T06:30:18;18.30;;;16.20;;
65597;SDS011;52267;51.984;20.956;2023-08-20T06:32:45;19.10;;;16.80;;
65597;SDS011;52267;51.984;20.956;2023-08-20T06:35:12;18.10;;;16.20;;
65597;SDS011;52267;51.984;20.956;2023-08-20T06:37:39;18.00;;;16.10;;
65597;SDS011;52267;51.984;20.956;2023-08-20T06:40:07;17.90;;;16.10;;
65597;SDS011;52267;51.984;20.956;2023-08-20T06:42:35;17.40;;;15.50;;
65597;SDS011;52267;51.984;20.956;2023-08-20T06:45:02;17.10;;;15.30;;
65597;SDS011;52267;51.984;20.956;2023-08-20T06:47:29;16.90;;;15.20;;
65597;SDS011;52267;51.984;20.956;2023-08-20T06:49:57;17.50;;;14.80;;
65597;SDS011;52267;51.984;20.956;2023-08-20T06:52:27;17.40;;;15.50;;
65597;SDS011;52267;51.984;20.956;2023-08-20T06:54:54;17.20;;;15.40;;
65597;SDS011;52267;51.984;20.956;2023-08-20T06:57:21;15.80;;;14.10;;
65597;SDS011;52267;51.984;20.956;2023-08-20T06:59:48;16.00;;;14.40;;
65597;SDS011;52267;51.984;20.956;2023-08-20T07:02:15;17.50;;;14.40;;
65597;SDS011;52267;51.984;20.956;2023-08-20T07:04:42;15.50;;;13.80;;
65597;SDS011;52267;51.984;20.956;2023-08-20T07:07:10;16.40;;;14.80;;
65597;SDS011;52267;51.984;20.956;2023-08-20T07:09:37;16.50;;;14.90;;
65597;SDS011;52267;51.984;20.956;2023-08-20T07:12:05;14.80;;;13.30;;
65597;SDS011;52267;51.984;20.956;2023-08-20T07:14:32;16.50;;;14.20;;
65597;SDS011;52267;51.984;20.956;2023-08-20T07:16:59;15.30;;;13.70;;
65597;SDS011;52267;51.984;20.956;2023-08-20T07:19:29;14.40;;;12.70;;
65597;SDS011;52267;51.984;20.956;2023-08-20T07:21:56;13.70;;;12.20;;
65597;SDS011;52267;51.984;20.956;2023-08-20T07:24:23;14.80;;;12.80;;
65597;SDS011;52267;51.984;20.956;2023-08-20T07:26:52;14.30;;;12.80;;
65597;SDS011;52267;51.984;20.956;2023-08-20T07:29:22;14.60;;;13.10;;
65597;SDS011;52267;51.984;20.956;2023-08-20T07:31:51;14.10;;;12.60;;
65597;SDS011;52267;51.984;20.956;2023-08-20T07:34:18;14.80;;;13.30;;
65597;SDS011;52267;51.984;20.956;2023-08-20T07:36:45;13.70;;;12.30;;
65597;SDS011;52267;51.984;20.956;2023-08-20T07:39:13;14.10;;;12.40;;
65597;SDS011;52267;51.984;20.956;2023-08-20T07:41:41;12.70;;;11.20;;
65597;SDS011;52267;51.984;20.956;2023-08-20T07:44:09;13.60;;;11.80;;
65597;SDS011;52267;51.984;20.956;2023-08-20T07:46:36;12.90;;;11.50;;
65597;SDS011;52267;51.984;20.956;2023-08-20T07:49:03;13.20;;;11.90;;
65597;SDS011;52267;51.984;20.956;2023-08-20T07:51:30;13.00;;;11.80;;
65597;SDS011;52267;51.984;20.956;2023-08-20T07:53:57;12.80;;;11.40;;
65597;SDS011;52267;51.984;20.956;2023-08-20T07:56:26;13.40;;;12.10;;
65597;SDS011;52267;51.984;20.956;2023-08-20T07:58:53;14.80;;;13.00;;
65597;SDS011;52267;51.984;20.956;2023-08-20T08:01:20;13.30;;;11.90;;
65597;SDS011;52267;51.984;20.956;2023-08-20T08:03:47;9.70;;;8.70;;
65597;SDS011;52267;51.984;20.956;2023-08-20T08:06:16;13.40;;;12.00;;
65597;SDS011;52267;51.984;20.956;2023-08-20T08:08:44;13.70;;;12.40;;
65597;SDS011;52267;51.984;20.956;2023-08-20T08:11:11;12.50;;;11.20;;
65597;SDS011;52267;51.984;20.956;2023-08-20T08:13:39;14.10;;;12.00;;
65597;SDS011;52267;51.984;20.956;2023-08-20T08:16:06;13.20;;;11.80;;
65597;SDS011;52267;51.984;20.956;2023-08-20T08:18:33;14.40;;;12.90;;
65597;SDS011;52267;51.984;20.956;2023-08-20T08:21:00;12.80;;;11.60;;
65597;SDS011;52267;51.984;20.956;2023-08-20T08:23:27;13.60;;;11.60;;
65597;SDS011;52267;51.984;20.956;2023-08-20T08:25:54;12.60;;;11.40;;
65597;SDS011;52267;51.984;20.956;2023-08-20T08:28:22;14.20;;;12.70;;
65597;SDS011;52267;51.984;20.956;2023-08-20T08:30:49;13.50;;;11.10;;
65597;SDS011;52267;51.984;20.956;2023-08-20T08:33:16;12.50;;;11.10;;
65597;SDS011;52267;51.984;20.956;2023-08-20T08:35:43;11.30;;;10.10;;
65597;SDS011;52267;51.984;20.956;2023-08-20T08:38:10;11.80;;;10.60;;
65597;SDS011;52267;51.984;20.956;2023-08-20T08:40:39;12.40;;;11.10;;
65597;SDS011;52267;51.984;20.956;2023-08-20T08:43:07;13.00;;;11.30;;
65597;SDS011;52267;51.984;20.956;2023-08-20T08:45:36;12.40;;;10.80;;
65597;SDS011;52267;51.984;20.956;2023-08-20T08:48:04;11.30;;;10.20;;
65597;SDS011;52267;51.984;20.956;2023-08-20T08:50:31;12.60;;;11.30;;
65597;SDS011;52267;51.984;20.956;2023-08-20T08:52:59;11.90;;;10.30;;
65597;SDS011;52267;51.984;20.956;2023-08-20T08:55:26;11.70;;;10.60;;
65597;SDS011;52267;51.984;20.956;2023-08-20T08:57:53;12.10;;;10.50;;
65597;SDS011;52267;51.984;20.956;2023-08-20T09:00:20;13.30;;;11.90;;
65597;SDS011;52267;51.984;20.956;2023-08-20T09:02:48;11.40;;;10.30;;
65597;SDS011;52267;51.984;20.956;2023-08-20T09:05:15;11.20;;;10.10;;
65597;SDS011;52267;51.984;20.956;2023-08-20T09:07:43;10.90;;;9.90;;
65597;SDS011;52267;51.984;20.956;2023-08-20T09:10:11;11.90;;;10.70;;
65597;SDS011;52267;51.984;20.956;2023-08-20T09:12:38;11.10;;;10.00;;
65597;SDS011;52267;51.984;20.956;2023-08-20T09:15:10;11.10;;;10.00;;
65597;SDS011;52267;51.984;20.956;2023-08-20T09:17:38;11.60;;;10.40;;
65597;SDS011;52267;51.984;20.956;2023-08-20T09:20:07;10.50;;;9.50;;
65597;SDS011;52267;51.984;20.956;2023-08-20T09:22:36;11.60;;;10.50;;
65597;SDS011;52267;51.984;20.956;2023-08-20T09:25:04;12.00;;;10.50;;
65597;SDS011;52267;51.984;20.956;2023-08-20T09:27:38;10.90;;;9.80;;
65597;SDS011;52267;51.984;20.956;2023-08-20T09:30:09;12.10;;;10.80;;
65597;SDS011;52267;51.984;20.956;2023-08-20T09:32:37;11.70;;;10.20;;
65597;SDS011;52267;51.984;20.956;2023-08-20T09:35:05;10.70;;;9.60;;
65597;SDS011;52267;51.984;20.956;2023-08-20T09:37:33;12.10;;;10.90;;
65597;SDS011;52267;51.984;20.956;2023-08-20T09:40:00;11.50;;;10.40;;
65597;SDS011;52267;51.984;20.956;2023-08-20T09:42:31;11.30;;;10.20;;
65597;SDS011;52267;51.984;20.956;2023-08-20T09:45:02;11.00;;;9.90;;
65597;SDS011;52267;51.984;20.956;2023-08-20T09:47:35;11.00;;;9.70;;
65597;SDS011;52267;51.984;20.956;2023-08-20T09:50:08;10.80;;;9.70;;
65597;SDS011;52267;51.984;20.956;2023-08-20T09:52:47;9.40;;;8.60;;
65597;SDS011;52267;51.984;20.956;2023-08-20T09:55:21;10.90;;;9.80;;
65597;SDS011;52267;51.984;20.956;2023-08-20T09:57:54;14.00;;;10.10;;
65597;SDS011;52267;51.984;20.956;2023-08-20T10:02:49;11.80;;;10.60;;
65597;SDS011;52267;51.984;20.956;2023-08-20T10:05:16;9.90;;;9.00;;
65597;SDS011;52267;51.984;20.956;2023-08-20T10:07:45;10.50;;;9.40;;
65597;SDS011;52267;51.984;20.956;2023-08-20T10:10:13;10.90;;;9.60;;
65597;SDS011;52267;51.984;20.956;2023-08-20T10:12:40;10.90;;;9.30;;
65597;SDS011;52267;51.984;20.956;2023-08-20T10:15:08;11.70;;;10.60;;
65597;SDS011;52267;51.984;20.956;2023-08-20T10:17:38;11.10;;;10.10;;
65597;SDS011;52267;51.984;20.956;2023-08-20T10:20:07;11.30;;;10.20;;
65597;SDS011;52267;51.984;20.956;2023-08-20T10:22:39;11.30;;;10.10;;
65597;SDS011;52267;51.984;20.956;2023-08-20T10:25:09;10.10;;;9.10;;
65597;SDS011;52267;51.984;20.956;2023-08-20T10:30:08;11.00;;;10.00;;
65597;SDS011;52267;51.984;20.956;2023-08-20T10:32:53;10.70;;;9.70;;
65597;SDS011;52267;51.984;20.956;2023-08-20T10:38:16;11.50;;;10.40;;
65597;SDS011;52267;51.984;20.956;2023-08-20T10:46:21;11.50;;;10.40;;
65597;SDS011;52267;51.984;20.956;2023-08-20T10:48:57;10.00;;;9.10;;
65597;SDS011;52267;51.984;20.956;2023-08-20T10:51:27;10.30;;;9.30;;
65597;SDS011;52267;51.984;20.956;2023-08-20T10:56:43;11.90;;;9.70;;
65597;SDS011;52267;51.984;20.956;2023-08-20T10:59:15;10.40;;;9.50;;
65597;SDS011;52267;51.984;20.956;2023-08-20T11:01:49;10.70;;;9.50;;
65597;SDS011;52267;51.984;20.956;2023-08-20T11:04:22;11.40;;;9.80;;
65597;SDS011;52267;51.984;20.956;2023-08-20T11:06:57;10.00;;;9.00;;
65597;SDS011;52267;51.984;20.956;2023-08-20T11:09:26;10.60;;;9.60;;
65597;SDS011;52267;51.984;20.956;2023-08-20T11:11:55;11.50;;;10.10;;
65597;SDS011;52267;51.984;20.956;2023-08-20T11:14:23;10.00;;;9.00;;
65597;SDS011;52267;51.984;20.956;2023-08-20T11:16:51;11.50;;;10.30;;
65597;SDS011;52267;51.984;20.956;2023-08-20T11:19:22;11.60;;;10.40;;
65597;SDS011;52267;51.984;20.956;2023-08-20T11:21:51;22.60;;;11.60;;
65597;SDS011;52267;51.984;20.956;2023-08-20T11:24:19;10.50;;;9.40;;
65597;SDS011;52267;51.984;20.956;2023-08-20T11:26:48;11.10;;;10.00;;
65597;SDS011;52267;51.984;20.956;2023-08-20T11:29:16;12.70;;;11.30;;
65597;SDS011;52267;51.984;20.956;2023-08-20T11:31:50;11.50;;;10.40;;
65597;SDS011;52267;51.984;20.956;2023-08-20T11:34:20;11.10;;;10.00;;
65597;SDS011;52267;51.984;20.956;2023-08-20T11:36:48;10.80;;;9.70;;
65597;SDS011;52267;51.984;20.956;2023-08-20T11:39:16;11.80;;;10.60;;
65597;SDS011;52267;51.984;20.956;2023-08-20T11:41:43;12.40;;;10.80;;
65597;SDS011;52267;51.984;20.956;2023-08-20T11:44:18;10.90;;;9.50;;
65597;SDS011;52267;51.984;20.956;2023-08-20T11:46:47;10.80;;;9.80;;
65597;SDS011;52267;51.984;20.956;2023-08-20T11:49:15;11.20;;;10.20;;
65597;SDS011;52267;51.984;20.956;2023-08-20T11:51:46;11.80;;;10.20;;
65597;SDS011;52267;51.984;20.956;2023-08-20T11:54:16;11.70;;;10.60;;
65597;SDS011;52267;51.984;20.956;2023-08-20T11:56:48;10.10;;;9.10;;
65597;SDS011;52267;51.984;20.956;2023-08-20T11:59:18;11.20;;;10.20;;
65597;SDS011;52267;51.984;20.956;2023-08-20T12:01:57;10.80;;;9.70;;
65597;SDS011;52267;51.984;20.956;2023-08-20T12:04:28;11.60;;;10.20;;
65597;SDS011;52267;51.984;20.956;2023-08-20T12:07:25;12.30;;;9.60;;
65597;SDS011;52267;51.984;20.956;2023-08-20T12:12:23;11.60;;;10.50;;
65597;SDS011;52267;51.984;20.956;2023-08-20T12:14:50;12.20;;;11.00;;
65597;SDS011;52267;51.984;20.956;2023-08-20T12:17:18;11.30;;;9.70;;
65597;SDS011;52267;51.984;20.956;2023-08-20T12:19:48;11.40;;;10.00;;
65597;SDS011;52267;51.984;20.956;2023-08-20T12:22:15;11.00;;;9.80;;
65597;SDS011;52267;51.984;20.956;2023-08-20T12:24:42;11.30;;;10.00;;
65597;SDS011;52267;51.984;20.956;2023-08-20T12:27:09;11.30;;;10.00;;
65597;SDS011;52267;51.984;20.956;2023-08-20T12:29:36;11.20;;;10.00;;
65597;SDS011;52267;51.984;20.956;2023-08-20T12:32:03;11.80;;;10.00;;
65597;SDS011;52267;51.984;20.956;2023-08-20T12:34:33;10.90;;;9.80;;
65597;SDS011;52267;51.984;20.956;2023-08-20T12:37:01;9.70;;;8.80;;
65597;SDS011;52267;51.984;20.956;2023-08-20T12:39:28;10.30;;;9.20;;
65597;SDS011;52267;51.984;20.956;2023-08-20T12:41:56;9.70;;;8.80;;
65597;SDS011;52267;51.984;20.956;2023-08-20T12:44:23;11.90;;;10.50;;
65597;SDS011;52267;51.984;20.956;2023-08-20T12:46:50;10.30;;;9.30;;
65597;SDS011;52267;51.984;20.956;2023-08-20T12:49:18;10.50;;;9.50;;
65597;SDS011;52267;51.984;20.956;2023-08-20T12:51:45;10.70;;;9.70;;
65597;SDS011;52267;51.984;20.956;2023-08-20T12:54:12;11.00;;;9.50;;
65597;SDS011;52267;51.984;20.956;2023-08-20T12:56:39;10.60;;;9.50;;
65597;SDS011;52267;51.984;20.956;2023-08-20T12:59:09;11.50;;;10.30;;
65597;SDS011;52267;51.984;20.956;2023-08-20T13:01:36;11.70;;;10.30;;
65597;SDS011;52267;51.984;20.956;2023-08-20T13:04:04;10.80;;;9.70;;
65597;SDS011;52267;51.984;20.956;2023-08-20T13:06:31;10.00;;;9.00;;
65597;SDS011;52267;51.984;20.956;2023-08-20T13:08:59;11.20;;;10.10;;
65597;SDS011;52267;51.984;20.956;2023-08-20T13:11:27;10.70;;;9.60;;
65597;SDS011;52267;51.984;20.956;2023-08-20T13:13:57;11.00;;;9.80;;
65597;SDS011;52267;51.984;20.956;2023-08-20T13:16:25;10.50;;;9.50;;
65597;SDS011;52267;51.984;20.956;2023-08-20T13:18:52;10.90;;;9.90;;
65597;SDS011;52267;51.984;20.956;2023-08-20T13:21:20;10.60;;;9.30;;
65597;SDS011;52267;51.984;20.956;2023-08-20T13:23:48;10.60;;;9.70;;
65597;SDS011;52267;51.984;20.956;2023-08-20T13:26:15;9.40;;;8.60;;
65597;SDS011;52267;51.984;20.956;2023-08-20T13:28:42;10.80;;;9.70;;
65597;SDS011;52267;51.984;20.956;2023-08-20T13:31:09;12.20;;;11.00;;
65597;SDS011;52267;51.984;20.956;2023-08-20T13:33:36;11.40;;;10.20;;
65597;SDS011;52267;51.984;20.956;2023-08-20T13:36:04;11.20;;;10.00;;
65597;SDS011;52267;51.984;20.956;2023-08-20T13:38:31;10.70;;;9.70;;
65597;SDS011;52267;51.984;20.956;2023-08-20T13:40:59;12.90;;;10.90;;
65597;SDS011;52267;51.984;20.956;2023-08-20T13:43:26;12.70;;;11.40;;
65597;SDS011;52267;51.984;20.956;2023-08-20T13:45:54;11.40;;;10.30;;
65597;SDS011;52267;51.984;20.956;2023-08-20T13:48:21;11.50;;;10.30;;
65597;SDS011;52267;51.984;20.956;2023-08-20T13:50:48;13.10;;;10.60;;
65597;SDS011;52267;51.984;20.956;2023-08-20T13:53:15;12.00;;;10.90;;
65597;SDS011;52267;51.984;20.956;2023-08-20T13:55:43;12.50;;;10.40;;
65597;SDS011;52267;51.984;20.956;2023-08-20T13:58:10;13.10;;;11.90;;
65597;SDS011;52267;51.984;20.956;2023-08-20T14:00:38;12.00;;;10.70;;
65597;SDS011;52267;51.984;20.956;2023-08-20T14:03:05;11.40;;;10.30;;
65597;SDS011;52267;51.984;20.956;2023-08-20T14:05:33;11.70;;;10.50;;
65597;SDS011;52267;51.984;20.956;2023-08-20T14:08:00;12.00;;;10.90;;
65597;SDS011;52267;51.984;20.956;2023-08-20T14:10:27;12.80;;;11.50;;
65597;SDS011;52267;51.984;20.956;2023-08-20T14:12:55;11.40;;;10.30;;
65597;SDS011;52267;51.984;20.956;2023-08-20T14:15:23;12.60;;;11.30;;
65597;SDS011;52267;51.984;20.956;2023-08-20T14:17:50;13.00;;;10.80;;
65597;SDS011;52267;51.984;20.956;2023-08-20T14:20:17;11.70;;;10.50;;
65597;SDS011;52267;51.984;20.956;2023-08-20T14:22:44;12.40;;;11.00;;
65597;SDS011;52267;51.984;20.956;2023-08-20T14:25:12;12.00;;;10.80;;
65597;SDS011;52267;51.984;20.956;2023-08-20T14:27:39;11.60;;;10.30;;
65597;SDS011;52267;51.984;20.956;2023-08-20T14:30:07;11.70;;;10.60;;
65597;SDS011;52267;51.984;20.956;2023-08-20T14:32:35;12.00;;;10.80;;
65597;SDS011;52267;51.984;20.956;2023-08-20T14:35:02;11.60;;;10.50;;
65597;SDS011;52267;51.984;20.956;2023-08-20T14:37:30;10.50;;;9.50;;
65597;SDS011;52267;51.984;20.956;2023-08-20T14:39:58;11.50;;;10.50;;